createdAt,value
2019-02-16T00:00:51.285Z,77.22
2019-02-16T00:03:35.282Z,77.02
2019-02-16T00:06:08.526Z,77.21
2019-02-16T00:08:51.579Z,77.25
2019-02-16T00:11:25.432Z,77.22
2019-02-16T00:13:58.841Z,77.45
2019-02-16T00:16:32.989Z,77.40
2019-02-16T00:19:15.468Z,77.20
2019-02-16T00:21:49.695Z,77.23
2019-02-16T00:24:31.747Z,77.45
2019-02-16T00:27:05.019Z,77.71
2019-02-16T00:29:38.821Z,77.79
2019-02-16T00:32:12.284Z,77.62
2019-02-16T00:34:46.256Z,77.58
2019-02-16T00:37:19.636Z,77.66
2019-02-16T00:39:53.534Z,77.63
2019-02-16T00:42:26.615Z,77.83
2019-02-16T00:45:00.464Z,78.04
2019-02-16T00:47:33.942Z,78.01
2019-02-16T00:50:07.500Z,78.12
2019-02-16T00:52:41.070Z,78.17
2019-02-16T00:55:14.642Z,77.92
2019-02-16T00:57:47.660Z,78.10
2019-02-16T01:00:31.617Z,78.05
2019-02-16T01:03:05.077Z,78.01
2019-02-16T01:05:38.671Z,78.01
2019-02-16T01:08:12.482Z,77.98
2019-02-16T01:10:45.893Z,77.90
2019-02-16T01:13:31.153Z,78.01
2019-02-16T01:16:04.159Z,78.31
2019-02-16T01:18:37.339Z,78.59
2019-02-16T01:21:10.903Z,78.71
2019-02-16T01:23:43.647Z,78.79
2019-02-16T01:26:25.863Z,78.89
2019-02-16T01:28:59.413Z,78.57
2019-02-16T01:31:32.511Z,78.17
2019-02-16T01:34:06.398Z,78.11
2019-02-16T01:36:40.587Z,77.97
2019-02-16T01:39:14.040Z,78.14
2019-02-16T01:41:47.891Z,78.28
2019-02-16T01:44:30.584Z,78.65
2019-02-16T01:47:04.072Z,78.87
2019-02-16T01:49:38.413Z,78.90
2019-02-16T01:52:20.594Z,78.58
2019-02-16T01:54:53.724Z,78.21
2019-02-16T01:57:27.543Z,78.01
2019-02-16T02:00:01.271Z,78.02
2019-02-16T02:02:35.756Z,78.13
2019-02-16T02:05:09.226Z,78.34
2019-02-16T02:07:51.791Z,78.75
2019-02-16T02:10:34.273Z,78.94
2019-02-16T02:13:07.802Z,78.67
2019-02-16T02:15:41.302Z,78.77
2019-02-16T02:18:15.118Z,78.56
2019-02-16T02:20:48.538Z,78.44
2019-02-16T02:23:23.680Z,78.51
2019-02-16T02:25:57.050Z,78.87
2019-02-16T02:28:30.197Z,78.95
2019-02-16T02:31:12.385Z,79.05
2019-02-16T02:33:46.530Z,79.30
2019-02-16T02:36:28.493Z,79.17
2019-02-16T02:39:01.889Z,79.00
2019-02-16T02:41:45.188Z,78.88
2019-02-16T02:44:19.024Z,78.75
2019-02-16T02:47:03.796Z,78.68
2019-02-16T02:49:37.728Z,78.66
2019-02-16T02:52:11.469Z,78.76
2019-02-16T02:54:45.003Z,79.00
2019-02-16T02:57:18.770Z,79.24
2019-02-16T03:00:01.724Z,79.35
2019-02-16T03:02:36.579Z,79.55
2019-02-16T03:05:10.563Z,79.63
2019-02-16T03:07:53.241Z,79.66
2019-02-16T03:10:35.901Z,79.42
2019-02-16T03:13:09.312Z,79.46
2019-02-16T03:15:42.743Z,79.42
2019-02-16T03:18:16.459Z,79.37
2019-02-16T03:20:50.606Z,79.32
2019-02-16T03:23:24.287Z,79.30
2019-02-16T03:26:13.574Z,79.49
2019-02-16T03:29:25.804Z,79.83
2019-02-16T03:32:29.032Z,79.91
2019-02-16T03:35:43.107Z,79.82
2019-02-16T03:38:44.173Z,79.79
2019-02-16T03:41:17.968Z,80.12
2019-02-16T03:43:52.204Z,80.33
2019-02-16T03:46:34.894Z,80.43
2019-02-16T03:49:23.730Z,80.24
2019-02-16T03:52:13.225Z,80.13
2019-02-16T03:54:42.232Z,79.98
2019-02-16T03:57:15.962Z,80.08
2019-02-16T03:59:48.036Z,80.16
2019-02-16T04:02:21.868Z,80.38
2019-02-16T04:04:54.963Z,80.34
2019-02-16T04:07:37.501Z,80.31
2019-02-16T04:10:19.910Z,80.34
2019-02-16T04:12:53.149Z,80.21
2019-02-16T04:15:26.977Z,80.22
2019-02-16T04:18:00.770Z,80.19
2019-02-16T04:20:33.919Z,80.22
2019-02-16T04:23:07.009Z,80.23
2019-02-16T04:25:48.853Z,80.40
2019-02-16T04:28:22.575Z,80.47
2019-02-16T04:30:55.770Z,80.41
2019-02-16T04:33:29.841Z,80.43
2019-02-16T04:36:03.590Z,80.39
2019-02-16T04:38:37.450Z,80.56
2019-02-16T04:41:19.987Z,80.54
2019-02-16T04:43:53.498Z,80.43
2019-02-16T04:46:27.371Z,80.50
2019-02-16T04:49:11.670Z,80.78
2019-02-16T04:51:45.362Z,80.91
2019-02-16T04:54:19.257Z,81.23
2019-02-16T04:57:02.104Z,81.38
2019-02-16T04:59:51.008Z,81.82
2019-02-16T05:02:33.952Z,81.69
2019-02-16T05:05:16.780Z,81.60
2019-02-16T05:07:59.203Z,81.38
2019-02-16T05:10:33.099Z,81.23
2019-02-16T05:13:15.771Z,80.95
2019-02-16T05:15:49.385Z,80.80
2019-02-16T05:18:23.517Z,80.81
2019-02-16T05:21:06.026Z,80.90
2019-02-16T05:23:48.945Z,80.86
2019-02-16T05:26:31.628Z,80.69
2019-02-16T05:29:14.652Z,80.59
2019-02-16T05:31:57.293Z,80.78
2019-02-16T05:34:40.214Z,81.05
2019-02-16T05:37:13.415Z,80.94
2019-02-16T05:39:45.855Z,80.80
2019-02-16T05:42:28.944Z,80.80
2019-02-16T05:45:10.874Z,80.82
2019-02-16T05:47:46.160Z,80.72
2019-02-16T05:50:19.600Z,80.70
2019-02-16T05:52:54.653Z,80.80
2019-02-16T05:55:28.280Z,80.80
2019-02-16T05:58:01.611Z,80.83
2019-02-16T06:00:35.366Z,80.98
2019-02-16T06:03:08.495Z,81.26
2019-02-16T06:05:50.959Z,81.30
2019-02-16T06:08:24.172Z,81.43
2019-02-16T06:10:58.182Z,81.64
2019-02-16T06:13:31.840Z,81.75
2019-02-16T06:16:05.352Z,81.75
2019-02-16T06:18:39.143Z,81.69
2019-02-16T06:21:21.497Z,81.52
2019-02-16T06:23:54.905Z,81.39
2019-02-16T06:26:29.063Z,81.32
2019-02-16T06:29:02.486Z,81.27
2019-02-16T06:31:37.584Z,81.15
2019-02-16T06:34:10.951Z,81.12
2019-02-16T06:36:44.026Z,81.00
2019-02-16T06:39:26.227Z,80.82
2019-02-16T06:41:59.617Z,80.70
2019-02-16T06:44:33.511Z,80.64
2019-02-16T06:47:06.925Z,80.57
2019-02-16T06:49:40.828Z,80.70
2019-02-16T06:52:13.949Z,80.76
2019-02-16T06:54:48.060Z,80.73
2019-02-16T06:57:31.932Z,80.64
2019-02-16T07:00:06.026Z,80.51
2019-02-16T07:02:39.436Z,80.67
2019-02-16T07:05:12.531Z,80.79
2019-02-16T07:07:44.847Z,80.95
2019-02-16T07:10:18.249Z,81.28
2019-02-16T07:12:51.658Z,81.35
2019-02-16T07:15:33.842Z,81.28
2019-02-16T07:18:21.669Z,81.27
2019-02-16T07:20:55.069Z,81.44
2019-02-16T07:23:28.517Z,81.58
2019-02-16T07:26:02.377Z,81.85
2019-02-16T07:28:35.744Z,82.13
2019-02-16T07:31:09.293Z,82.04
2019-02-16T07:33:42.804Z,81.91
2019-02-16T07:36:16.107Z,81.70
2019-02-16T07:38:58.628Z,81.54
2019-02-16T07:41:41.540Z,81.46
2019-02-16T07:44:45.364Z,81.48
2019-02-16T07:47:43.530Z,81.56
2019-02-16T07:50:28.676Z,81.99
2019-02-16T07:53:38.494Z,82.28
2019-02-16T07:56:28.791Z,82.37
2019-02-16T07:59:38.378Z,82.58
2019-02-16T08:02:29.868Z,82.20
2019-02-16T08:05:27.930Z,80.11
2019-02-16T08:08:26.469Z,76.91
2019-02-16T08:11:36.847Z,74.63
2019-02-16T08:14:17.579Z,72.30
2019-02-16T08:17:15.658Z,70.76
2019-02-16T08:20:23.841Z,69.12
2019-02-16T08:23:40.559Z,67.77
2019-02-16T08:26:35.752Z,66.43
2019-02-16T08:29:34.568Z,65.82
2019-02-16T08:32:37.053Z,64.72
2019-02-16T08:35:47.601Z,64.19
2019-02-16T08:38:35.113Z,64.08
2019-02-16T08:41:36.004Z,64.18
2019-02-16T08:44:24.707Z,64.30
2019-02-16T08:47:15.730Z,63.81
2019-02-16T08:50:07.630Z,63.30
2019-02-16T08:53:10.691Z,63.06
2019-02-16T08:56:18.018Z,63.09
2019-02-16T08:59:29.925Z,62.77
2019-02-16T09:02:26.021Z,62.16
2019-02-16T09:05:12.771Z,62.39
2019-02-16T09:07:55.681Z,61.88
2019-02-16T09:10:54.952Z,62.26
2019-02-16T09:13:53.124Z,61.73
2019-02-16T09:16:50.329Z,62.29
2019-02-16T09:19:33.183Z,62.26
2019-02-16T09:22:41.197Z,61.78
2019-02-16T09:25:23.847Z,61.70
2019-02-16T09:28:19.109Z,61.84
2019-02-16T09:31:19.321Z,60.70
2019-02-16T09:34:21.510Z,60.44
2019-02-16T09:37:08.224Z,58.44
2019-02-16T09:40:17.196Z,57.67
2019-02-16T09:42:56.362Z,57.15
2019-02-16T09:45:47.416Z,55.92
2019-02-16T09:48:42.894Z,56.01
2019-02-16T09:51:50.422Z,55.23
2019-02-16T09:54:42.671Z,55.60
2019-02-16T09:57:35.358Z,55.83
2019-02-16T10:00:44.641Z,55.21
2019-02-16T10:03:40.231Z,55.55
2019-02-16T10:06:51.026Z,55.95
2019-02-16T10:09:32.336Z,54.88
2019-02-16T10:12:23.197Z,54.84
2019-02-16T10:15:15.539Z,55.10
2019-02-16T10:18:42.923Z,54.51
2019-02-16T10:22:04.466Z,54.81
2019-02-16T10:25:15.077Z,54.45
2019-02-16T10:28:00.238Z,54.12
2019-02-16T10:30:56.940Z,53.95
2019-02-16T10:33:57.397Z,53.61
2019-02-16T10:36:48.960Z,54.13
2019-02-16T10:40:06.974Z,53.60
2019-02-16T10:42:58.090Z,53.04
2019-02-16T10:46:05.950Z,53.29
2019-02-16T10:48:55.546Z,53.10
2019-02-16T10:51:47.974Z,53.71
2019-02-16T10:54:40.396Z,53.57
2019-02-16T10:57:50.721Z,53.00
2019-02-16T11:01:06.390Z,53.11
2019-02-16T11:03:57.148Z,52.46
2019-02-16T11:06:55.694Z,53.14
2019-02-16T11:09:54.033Z,52.21
2019-02-16T11:12:41.186Z,52.46
2019-02-16T11:15:49.114Z,52.23
2019-02-16T11:18:56.655Z,52.54
2019-02-16T11:21:58.919Z,52.73
2019-02-16T11:25:00.303Z,52.80
2019-02-16T11:28:08.105Z,52.03
2019-02-16T11:30:59.830Z,51.73
2019-02-16T11:34:07.487Z,51.48
2019-02-16T11:36:52.241Z,51.81
2019-02-16T11:39:33.120Z,51.36
2019-02-16T11:42:34.841Z,51.12
2019-02-16T11:45:26.400Z,50.72
2019-02-16T11:48:31.555Z,51.29
2019-02-16T11:51:55.895Z,50.72
2019-02-16T11:55:13.621Z,50.32
2019-02-16T11:58:09.673Z,50.31
2019-02-16T12:01:06.362Z,50.15
2019-02-16T12:04:13.741Z,49.95
2019-02-16T12:07:26.985Z,50.70
2019-02-16T12:10:10.307Z,49.47
2019-02-16T12:13:29.834Z,49.89
2019-02-16T12:16:12.395Z,49.43
2019-02-16T12:18:58.784Z,49.44
2019-02-16T12:21:51.174Z,49.38
2019-02-16T12:25:05.108Z,50.34
2019-02-16T12:27:54.175Z,49.47
2019-02-16T12:30:47.005Z,49.44
2019-02-16T12:33:33.115Z,48.91
2019-02-16T12:36:24.187Z,49.46
2019-02-16T12:39:26.380Z,49.54
2019-02-16T12:42:41.435Z,48.96
2019-02-16T12:45:27.185Z,49.25
2019-02-16T12:48:45.412Z,49.87
2019-02-16T12:52:10.567Z,49.52
2019-02-16T12:54:53.377Z,49.60
2019-02-16T12:57:37.029Z,49.06
2019-02-16T13:00:43.567Z,49.17
2019-02-16T13:03:58.140Z,48.85
2019-02-16T13:07:19.513Z,49.28
2019-02-16T13:10:15.419Z,49.34
2019-02-16T13:13:04.942Z,48.65
2019-02-16T13:15:57.401Z,48.65
2019-02-16T13:19:07.291Z,48.96
2019-02-16T13:21:48.968Z,49.19
2019-02-16T13:24:47.843Z,48.92
2019-02-16T13:27:48.960Z,48.91
2019-02-16T13:30:44.011Z,48.73
2019-02-16T13:33:52.923Z,49.31
2019-02-16T13:36:38.742Z,49.91
2019-02-16T13:39:53.902Z,49.61
2019-02-16T13:42:34.068Z,50.24
2019-02-16T13:45:29.555Z,50.05
2019-02-16T13:48:13.930Z,49.82
2019-02-16T13:51:18.867Z,49.05
2019-02-16T13:54:17.718Z,49.78
2019-02-16T13:57:25.257Z,48.89
2019-02-16T14:00:11.565Z,49.30
2019-02-16T14:03:03.011Z,48.97
2019-02-16T14:05:55.226Z,49.31
2019-02-16T14:08:39.576Z,49.36
2019-02-16T14:11:58.388Z,48.94
2019-02-16T14:14:51.557Z,49.15
2019-02-16T14:17:51.684Z,49.26
2019-02-16T14:20:25.120Z,49.23
2019-02-16T14:23:07.535Z,48.80
2019-02-16T14:25:45.971Z,48.09
2019-02-16T14:28:20.524Z,48.68
2019-02-16T14:30:53.621Z,48.48
2019-02-16T14:33:36.426Z,48.65
2019-02-16T14:36:19.059Z,48.54
2019-02-16T14:39:16.909Z,48.87
2019-02-16T14:41:50.172Z,48.85
2019-02-16T14:44:32.480Z,48.54
2019-02-16T14:47:16.776Z,48.56
2019-02-16T14:49:50.774Z,48.12
2019-02-16T14:52:33.243Z,48.56
2019-02-16T14:55:07.672Z,48.11
2019-02-16T14:57:41.252Z,47.94
2019-02-16T15:00:14.477Z,48.34
2019-02-16T15:02:58.362Z,48.02
2019-02-16T15:05:31.812Z,48.27
2019-02-16T15:08:05.838Z,48.30
2019-02-16T15:10:39.367Z,48.66
2019-02-16T15:13:13.246Z,48.22
2019-02-16T15:15:56.102Z,48.68
2019-02-16T15:18:38.791Z,48.82
2019-02-16T15:21:27.420Z,48.33
2019-02-16T15:24:00.843Z,48.79
2019-02-16T15:26:34.625Z,48.57
2019-02-16T15:29:09.252Z,48.61
2019-02-16T15:31:42.869Z,48.99
2019-02-16T15:34:16.333Z,49.59
2019-02-16T15:36:49.443Z,49.65
2019-02-16T15:39:31.918Z,49.65
2019-02-16T15:42:05.043Z,49.84
2019-02-16T15:44:38.939Z,49.95
2019-02-16T15:47:12.848Z,50.06
2019-02-16T15:49:55.508Z,50.17
2019-02-16T15:52:28.971Z,50.65
2019-02-16T15:55:03.340Z,50.77
2019-02-16T15:57:36.831Z,50.92
2019-02-16T16:00:24.121Z,51.13
2019-02-16T16:03:06.259Z,51.35
2019-02-16T16:05:39.706Z,51.52
2019-02-16T16:08:42.005Z,51.64
2019-02-16T16:11:20.765Z,51.79
2019-02-16T16:14:06.685Z,52.06
2019-02-16T16:16:53.450Z,52.20
2019-02-16T16:19:52.322Z,52.66
2019-02-16T16:22:47.178Z,53.05
2019-02-16T16:25:42.585Z,53.41
2019-02-16T16:28:33.335Z,53.78
2019-02-16T16:31:44.715Z,53.88
2019-02-16T16:34:45.048Z,54.22
2019-02-16T16:37:27.135Z,54.37
2019-02-16T16:40:28.434Z,54.46
2019-02-16T16:43:30.017Z,54.71
2019-02-16T16:46:51.233Z,54.73
2019-02-16T16:49:52.595Z,54.89
2019-02-16T16:52:54.581Z,54.98
2019-02-16T16:55:33.723Z,54.87
2019-02-16T16:58:29.094Z,54.93
2019-02-16T17:01:20.060Z,55.12
2019-02-16T17:04:08.914Z,56.06
2019-02-16T17:07:01.276Z,55.66
2019-02-16T17:09:51.168Z,56.01
2019-02-16T17:12:46.846Z,56.99
2019-02-16T17:15:39.802Z,57.81
2019-02-16T17:18:22.608Z,58.80
2019-02-16T17:21:14.971Z,59.05
2019-02-16T17:24:24.161Z,59.47
2019-02-16T17:30:24.929Z,60.52
2019-02-16T17:33:29.636Z,61.25
2019-02-16T17:36:21.733Z,61.87
2019-02-16T17:39:07.676Z,62.28
2019-02-16T17:41:49.096Z,63.08
2019-02-16T17:44:40.472Z,63.43
2019-02-16T17:47:36.398Z,63.79
2019-02-16T17:50:19.555Z,63.98
2019-02-16T17:53:14.949Z,64.25
2019-02-16T17:56:13.158Z,64.72
2019-02-16T17:59:01.646Z,64.79
2019-02-16T18:02:17.133Z,64.78
2019-02-16T18:05:15.646Z,65.00
2019-02-16T18:08:16.966Z,65.12
2019-02-16T18:11:09.500Z,65.55
2019-02-16T18:13:53.809Z,65.94
2019-02-16T18:16:47.206Z,66.37
2019-02-16T18:19:37.039Z,66.51
2019-02-16T18:22:29.407Z,66.57
2019-02-16T18:25:23.200Z,66.95
2019-02-16T18:28:10.602Z,67.08
2019-02-16T18:31:01.626Z,67.46
2019-02-16T18:33:57.869Z,67.40
2019-02-16T18:36:50.261Z,68.03
2019-02-16T18:39:31.696Z,68.16
2019-02-16T18:42:36.906Z,68.53
2019-02-16T18:45:57.561Z,68.65
2019-02-16T18:49:09.809Z,68.79
2019-02-16T18:52:02.254Z,69.34
2019-02-16T18:55:20.367Z,69.42
2019-02-16T18:58:05.542Z,69.18
2019-02-16T19:00:56.382Z,69.89
2019-02-16T19:03:41.033Z,69.92
2019-02-16T19:06:44.155Z,70.07
2019-02-16T19:10:08.544Z,70.19
2019-02-16T19:13:17.814Z,70.30
2019-02-16T19:16:03.782Z,70.71
2019-02-16T19:18:55.148Z,70.66
2019-02-16T19:21:47.170Z,70.76
2019-02-16T19:24:55.427Z,70.92
2019-02-16T19:28:15.233Z,70.75
2019-02-16T19:31:11.626Z,71.03
2019-02-16T19:34:12.623Z,71.28
2019-02-16T19:37:05.009Z,71.51
2019-02-16T19:40:16.024Z,71.85
2019-02-16T19:43:23.755Z,72.01
2019-02-16T19:46:12.264Z,72.08
2019-02-16T19:49:21.326Z,72.39
2019-02-16T19:52:01.033Z,72.38
2019-02-16T19:54:47.102Z,72.59
2019-02-16T19:57:38.013Z,72.41
2019-02-16T20:00:33.246Z,72.61
2019-02-16T20:03:31.045Z,72.94
2019-02-16T20:06:40.701Z,73.24
2019-02-16T20:09:22.400Z,73.09
2019-02-16T20:12:08.145Z,72.78
2019-02-16T20:14:50.093Z,73.03
2019-02-16T20:17:31.596Z,73.18
2019-02-16T20:20:41.808Z,73.24
2019-02-16T20:23:41.874Z,73.16
2019-02-16T20:26:37.075Z,73.05
2019-02-16T20:29:29.764Z,72.85
2019-02-16T20:32:34.517Z,72.58
2019-02-16T20:35:36.342Z,72.89
2019-02-16T20:38:36.648Z,73.55
2019-02-16T20:41:28.979Z,73.41
2019-02-16T20:44:47.079Z,73.62
2019-02-16T20:47:57.588Z,73.80
2019-02-16T20:50:56.062Z,73.90
2019-02-16T20:53:52.193Z,73.24
2019-02-16T20:56:47.278Z,73.02
2019-02-16T20:59:40.429Z,73.75
2019-02-16T21:02:51.578Z,73.96
2019-02-16T21:05:42.970Z,74.13
2019-02-16T21:08:35.514Z,73.95
2019-02-16T21:11:26.798Z,73.68
2019-02-16T21:14:22.622Z,73.47
2019-02-16T21:17:03.236Z,73.77
2019-02-16T21:20:10.982Z,74.17
2019-02-16T21:23:05.844Z,74.34
2019-02-16T21:26:36.494Z,74.90
2019-02-16T21:29:14.897Z,75.14
2019-02-16T21:32:04.336Z,74.99
2019-02-16T21:34:55.426Z,74.98
2019-02-16T21:37:55.890Z,74.78
2019-02-16T21:40:36.816Z,74.91
2019-02-16T21:43:36.473Z,75.17
2019-02-16T21:46:42.051Z,75.54
2019-02-16T21:49:33.241Z,75.72
2019-02-16T21:52:25.122Z,75.81
2019-02-16T21:55:35.389Z,75.59
2019-02-16T21:58:53.090Z,75.34
2019-02-16T22:01:47.023Z,75.39
2019-02-16T22:04:53.596Z,75.44
2019-02-16T22:08:04.852Z,75.36
2019-02-16T22:10:54.935Z,75.68
2019-02-16T22:13:28.863Z,75.63
2019-02-16T22:16:12.804Z,75.75
2019-02-16T22:18:46.585Z,75.87
2019-02-16T22:21:20.701Z,75.94
2019-02-16T22:24:03.126Z,75.74
2019-02-16T22:26:36.929Z,75.43
2019-02-16T22:29:10.991Z,75.21
2019-02-16T22:31:54.365Z,75.38
2019-02-16T22:34:36.761Z,75.85
2019-02-16T22:37:19.918Z,75.87
2019-02-16T22:40:02.541Z,76.30
2019-02-16T22:42:46.113Z,76.62
2019-02-16T22:45:19.375Z,76.62
2019-02-16T22:47:53.342Z,76.01
2019-02-16T22:50:27.046Z,75.87
2019-02-16T22:53:09.761Z,76.05
2019-02-16T22:55:42.903Z,75.63
2019-02-16T22:58:16.478Z,75.50
2019-02-16T23:00:51.754Z,75.88
2019-02-16T23:03:26.971Z,76.33
2019-02-16T23:06:00.437Z,76.84
2019-02-16T23:08:33.928Z,76.95
2019-02-16T23:11:07.551Z,76.96
2019-02-16T23:13:40.811Z,76.70
2019-02-16T23:16:14.330Z,76.76
2019-02-16T23:18:56.667Z,76.95
2019-02-16T23:21:39.047Z,76.73
2019-02-16T23:24:12.851Z,76.62
2019-02-16T23:26:46.477Z,76.52
2019-02-16T23:29:19.990Z,76.71
2019-02-16T23:31:53.905Z,76.98
2019-02-16T23:34:38.031Z,77.24
2019-02-16T23:37:11.411Z,77.34
2019-02-16T23:39:44.931Z,77.22
2019-02-16T23:42:18.380Z,77.21
2019-02-16T23:44:52.232Z,77.19
2019-02-16T23:47:25.757Z,77.42
2019-02-16T23:49:59.328Z,77.70
2019-02-16T23:52:32.852Z,77.73
2019-02-16T23:55:06.601Z,77.53
2019-02-16T23:57:40.547Z,77.15
